Terminal Aerodrome Forecast
Issued by NWS

Home | Current Version | Previous Version | Text Only | Print | Product List | Glossary On
Versions: 1 2 3 4 5 6 7 8 9 10 11 12 13 14 15
376
FTUS44 KTSA 231722
TAFMLC
TAF
KMLC 231722Z 2318/2418 34012KT P6SM VCSH BKN050
      TEMPO 2320/2324 6SM -SHRA BKN025
     FM240100 32003KT P6SM SCT050
     FM241500 33012KT P6SM BKN040=

USA.gov is the U.S. government's official web portal to all federal, state and local government web resources and services.